Seward, AK

7:05 AM AKDT on July 31, 2014 (GMT -0800)
Whittier (PAWR) Elev 30 ft | 60.78 °N, 148.72 °W | Change Station

Current weather conditions updated 802 days ago

Partly Cloudy
Partly Cloudy
61 °F
Feels Like 61 °F
N
2
Wind Variable Wind from South
Gusts 3 mph

Today is forecast to be Much Warmer than yesterday.

Today
High -- | Low -- °F
--% Chance of Precip.
Yesterday
High -- | Low -- °F
Precip. -- in
5:35 AM 10:30 PM
Waxing Crescent, 19% visible
Pressure 30.04 in
Visibility 10.0 miles
Clouds Overcast 7000 ft
Dew Point 52 °F
Humidity 75%
Rainfall 0.00 in
Snow Depth 0 in , 7 in
UV 0 out of 12
Pollen Not available.
Air Quality Not available.
Flu Activity Not available.
METAR PAWR 200546Z 09003KT 10SM OVC070 09/04 A3004 RMK LAST

More Conditions Fewer Conditions

Pressure 30.04 in
Visibility 10.0 miles
Clouds Overcast 7000 ft
Dew Point 52 °F
Humidity 75%
Rainfall 0.00 in
Snow Depth 0 in , 7 in
UV 0 out of 12
Pollen Not available.
Air Quality Not available.
Flu Activity Not available.
METAR PAWR 200546Z 09003KT 10SM OVC070 09/04 A3004 RMK LAST

More Conditions Fewer Conditions

10-Day Weather Forecast

Almanac

Astronomy

Jul. 31, 2014 Rise Set
Actual Time 5:35 AM AKDT 10:30 PM AKDT
Civil Twilight 4:34 AM AKDT 11:31 PM AKDT
Nautical Twilight 2:36 AM AKDT 1:31 AM AKDT
Astronomical Twilight Sun does not rise Sun does not rise
Moon 11:40 AM AKDT 11:14 PM AKDT
Length of Visible Light 18h 57m
Length of Day
16h 55m
Tomorrow will be 4m 52s shorter.
Waxing Crescent, 19% of the Moon is Illuminated
Today
Waxing Crescent
Aug 3
First Quarter
Aug 10
Full
Aug 17
Last Quarter
Aug 25
New

Today's Extremes

State Highs State Lows

Community

WunderPhotos

Upload Photos

1,739,349 photos uploaded!

Nearby

Snow Depth

Station Depth Elevation
Grouse Creek Divide 0 in 700 ft
Cooper Lake 7 in 1200 ft
Summit Creek 0 in 1400 ft
Grandview 2 in 1100 ft
Turnagain Pass 0 in 1880 ft

Earthquake Activity

City Distance Mag. Time & Date
No recent earthquake activity has been reported nearby.
Minimum magnitude displayed is 2.5.

Coastal Water Temperatures

Place Temperature
No Stations Reporting

Nearby Weather Stations

Station Location Temp. Windchill Dew Point Humidity Wind Precip. Elev Updated Type
Oak Street Forest Acres Seward Alaska, Seward, AK 48.6 °F 49 °F 47 °F 95% North  at  0.0 mph 0.00 in / hr 144 ft 7:04 AM AKDT Rapid Fire
RAWS KENAI LAKE AK, Moose Pass, AK 42 °F 42 °F 42 °F 100% North  at  0 mph 0.00 in / hr 470 ft 5:56 AM AKDT MADIS
RAWS PEDERSEN LAGOON AK, Seward, AK 54 °F - 45 °F 73% NNE  at  4 mph 0.00 in / hr 625 ft 6:28 AM AKDT MADIS
RAWS HARDING ICEFIELD AK, Seward, AK 42 °F 34 °F 36 °F 81% NW  at  17 mph 0.00 in / hr 4299 ft 5:43 AM AKDT MADIS

Show More Stations Show Fewer Stations